KPNC/PNC METAR and TAF weather

Enter ICAO airport designator
Station Type Date Time Source
KPNC METAR 2020/03/29 14:53 UTC NOAA

KPNC 291453Z AUTO 29007KT 10SM CLR 11/03 A3014 RMK AO2 SLP205 T01060033 53020 $


Station Type Date Time Source
KPNC Decoded METAR 2020/03/29 14:53 UTC NOAA

PONCA CITY MUNICIPAL AIRPORT, OK, United States (KPNC) 36-44N 97-06W 308M
Mar 29, 2020 - 10:53 AM EDT / 2020.03.29 1453 UTC
Wind: from the WNW (290 degrees) at 8 MPH (7 KT):0
Visibility: 10 mile(s):0
Sky conditions: clear
Temperature: 51.1 F (10.6 C)
Dew Point: 37.9 F (3.3 C)
Relative Humidity: 60%
Pressure (altimeter): 30.14 in. Hg (1020 hPa)
Pressure tendency: 0.06 inches (2.0 hPa) higher than three hours ago
ob: KPNC 291453Z AUTO 29007KT 10SM CLR 11/03 A3014 RMK AO2 SLP205 T01060033 53020
cycle: 15

Station Type Date Time Source
KPNC TAF 2020/03/29 12:39 UTC NOAA

TAF KPNC 291136Z 2912/3012 26005KT P6SM SKC
FM291900 23009KT P6SM BKN250
FM300000 14004KT P6SM BKN250

Example: see airport list